createdAt,value
2022-11-06T00:00:26.839Z,6.53
2022-11-06T00:02:53.466Z,5.97
2022-11-06T00:05:38.731Z,7.15
2022-11-06T00:08:05.197Z,6.32
2022-11-06T00:10:32.016Z,5.93
2022-11-06T00:13:00.100Z,5.75
2022-11-06T00:15:27.123Z,6.88
2022-11-06T00:17:53.951Z,6.38
2022-11-06T00:20:20.675Z,5.88
2022-11-06T00:22:47.126Z,6.13
2022-11-06T00:25:13.541Z,6.10
2022-11-06T00:27:41.445Z,6.43
2022-11-06T00:30:09.737Z,5.53
2022-11-06T00:32:36.211Z,5.80
2022-11-06T00:35:02.780Z,5.32
2022-11-06T00:37:29.208Z,5.50
2022-11-06T00:39:55.632Z,4.93
2022-11-06T00:42:22.037Z,4.63
2022-11-06T00:44:48.472Z,4.88
2022-11-06T00:47:14.894Z,4.50
2022-11-06T00:49:41.314Z,4.78
2022-11-06T00:52:07.870Z,4.47
2022-11-06T00:54:34.293Z,4.32
2022-11-06T00:57:00.707Z,4.82
2022-11-06T00:59:27.176Z,5.97
2022-11-06T01:01:53.755Z,5.38
2022-11-06T01:04:24.754Z,8.52
2022-11-06T01:06:53.849Z,5.75
2022-11-06T01:09:22.420Z,5.10
2022-11-06T01:12:12.520Z,15.48
2022-11-06T01:14:39.572Z,7.18
2022-11-06T01:17:06.021Z,5.72
2022-11-06T01:19:32.904Z,6.05
2022-11-06T01:21:59.317Z,5.10
2022-11-06T01:24:27.880Z,5.57
2022-11-06T01:29:41.803Z,5.03
2022-11-06T01:32:09.035Z,5.78
2022-11-06T01:34:35.618Z,5.50
2022-11-06T01:37:02.040Z,5.38
2022-11-06T01:39:28.577Z,5.72
2022-11-06T01:41:55.123Z,5.75
2022-11-06T01:44:33.703Z,5.38
2022-11-06T01:47:02.326Z,4.93
2022-11-06T01:49:32.919Z,4.95
2022-11-06T01:52:06.725Z,4.78
2022-11-06T01:54:36.495Z,6.90
2022-11-06T01:57:04.357Z,5.60
2022-11-06T01:59:37.141Z,6.03
2022-11-06T02:02:04.256Z,5.63
2022-11-06T02:04:44.058Z,5.40
2022-11-06T02:07:12.048Z,4.65
2022-11-06T02:09:39.013Z,4.97
2022-11-06T02:12:24.236Z,5.20
2022-11-06T02:14:56.347Z,4.55
2022-11-06T02:17:46.911Z,5.35
2022-11-06T02:20:20.458Z,5.10
2022-11-06T02:22:53.053Z,6.57
2022-11-06T02:25:24.326Z,5.45
2022-11-06T02:28:03.699Z,4.57
2022-11-06T02:30:41.604Z,5.25
2022-11-06T02:33:14.424Z,4.50
2022-11-06T02:35:47.643Z,5.57
2022-11-06T02:38:18.966Z,5.22
2022-11-06T02:40:50.357Z,5.22
2022-11-06T02:43:19.882Z,5.57
2022-11-06T02:45:52.750Z,4.82
2022-11-06T02:48:24.760Z,4.68
2022-11-06T02:50:54.724Z,4.68
2022-11-06T02:53:25.171Z,5.88
2022-11-06T02:55:55.842Z,5.40
2022-11-06T02:58:29.040Z,7.03
2022-11-06T03:01:02.756Z,9.45
2022-11-06T03:06:18.774Z,5.32
2022-11-06T03:09:14.483Z,5.20
2022-11-06T03:11:41.169Z,5.07
2022-11-06T03:14:16.935Z,6.15
2022-11-06T03:16:56.257Z,4.88
2022-11-06T03:20:00.727Z,5.03
2022-11-06T03:22:38.917Z,5.63
2022-11-06T03:25:09.420Z,4.85
2022-11-06T03:27:41.863Z,5.50
2022-11-06T03:30:16.241Z,5.65
2022-11-06T03:33:06.174Z,5.40
2022-11-06T03:35:44.169Z,5.28
2022-11-06T03:38:17.938Z,5.55
2022-11-06T03:40:49.640Z,5.85
2022-11-06T03:43:20.581Z,6.00
2022-11-06T03:45:49.648Z,6.20
2022-11-06T03:48:23.624Z,5.05
2022-11-06T03:51:07.823Z,5.13
2022-11-06T03:53:45.320Z,5.32
2022-11-06T03:56:23.998Z,5.13
2022-11-06T03:58:51.807Z,5.13
2022-11-06T04:01:23.776Z,5.13
2022-11-06T04:04:05.837Z,5.07
2022-11-06T04:06:47.457Z,4.72
2022-11-06T04:09:35.146Z,5.65
2022-11-06T04:12:23.639Z,4.75
2022-11-06T04:14:54.682Z,5.22
2022-11-06T04:17:26.289Z,5.68
2022-11-06T04:20:00.113Z,4.93
2022-11-06T04:22:34.499Z,5.47
2022-11-06T04:25:27.403Z,5.88
2022-11-06T04:28:19.909Z,5.63
2022-11-06T04:31:11.679Z,5.28
2022-11-06T04:33:50.260Z,6.03
2022-11-06T04:36:38.090Z,6.35
2022-11-06T04:39:25.519Z,5.75
2022-11-06T04:42:10.071Z,5.72
2022-11-06T04:44:40.877Z,7.47
2022-11-06T04:47:11.432Z,4.93
2022-11-06T04:49:40.587Z,5.75
2022-11-06T04:52:12.340Z,6.25
2022-11-06T04:54:39.285Z,5.55
2022-11-06T04:57:05.845Z,5.22
2022-11-06T04:59:35.646Z,5.40
2022-11-06T05:02:02.840Z,6.68
2022-11-06T05:04:29.415Z,5.72
2022-11-06T05:06:55.956Z,5.97
2022-11-06T05:09:22.455Z,5.30
2022-11-06T05:11:48.867Z,6.40
2022-11-06T05:14:15.344Z,5.25
2022-11-06T05:16:41.941Z,4.65
2022-11-06T05:19:08.437Z,4.60
2022-11-06T05:21:53.208Z,5.18
2022-11-06T05:24:19.687Z,5.45
2022-11-06T05:26:46.071Z,5.75
2022-11-06T05:29:13.539Z,6.18
2022-11-06T05:31:40.122Z,5.78
2022-11-06T05:34:06.814Z,5.97
2022-11-06T05:36:33.523Z,5.40
2022-11-06T05:38:59.905Z,5.50
2022-11-06T05:41:26.363Z,6.13
2022-11-06T05:43:53.023Z,6.32
2022-11-06T05:46:42.896Z,6.05
2022-11-06T05:49:05.911Z,6.32
2022-11-06T05:51:32.586Z,6.57
2022-11-06T05:53:59.107Z,6.82
2022-11-06T05:56:25.486Z,6.07
2022-11-06T05:58:52.028Z,5.75
2022-11-06T06:01:18.666Z,6.25
2022-11-06T06:03:45.299Z,7.07
2022-11-06T06:06:11.811Z,7.35
2022-11-06T06:08:38.320Z,6.97
2022-11-06T06:11:08.209Z,5.85
2022-11-06T06:13:37.810Z,5.28
2022-11-06T06:16:04.633Z,6.18
2022-11-06T06:18:31.219Z,5.90
2022-11-06T06:20:58.994Z,6.03
2022-11-06T06:23:25.519Z,5.63
2022-11-06T06:25:51.962Z,6.55
2022-11-06T06:28:18.386Z,5.38
2022-11-06T06:30:44.805Z,5.75
2022-11-06T06:33:11.264Z,6.40
2022-11-06T06:35:37.712Z,5.75
2022-11-06T06:38:04.164Z,6.10
2022-11-06T06:40:30.604Z,5.97
2022-11-06T06:42:58.032Z,5.68
2022-11-06T06:45:25.836Z,5.55
2022-11-06T06:47:52.412Z,5.35
2022-11-06T06:50:19.135Z,5.60
2022-11-06T06:52:45.556Z,6.15
2022-11-06T06:55:11.970Z,6.38
2022-11-06T06:57:38.399Z,5.00
2022-11-06T07:00:05.496Z,6.13
2022-11-06T07:02:32.728Z,5.55
2022-11-06T07:04:59.239Z,5.10
2022-11-06T07:07:25.631Z,5.07
2022-11-06T07:09:52.353Z,5.53
2022-11-06T07:12:18.811Z,5.75
2022-11-06T07:14:45.212Z,5.45
2022-11-06T07:17:11.707Z,5.20
2022-11-06T07:19:38.234Z,5.10
2022-11-06T07:22:04.614Z,4.95
2022-11-06T07:24:31.099Z,4.47
2022-11-06T07:26:57.502Z,4.53
2022-11-06T07:29:23.889Z,4.32
2022-11-06T07:31:50.324Z,3.95
2022-11-06T07:34:16.763Z,4.30
2022-11-06T07:36:43.201Z,4.63
2022-11-06T07:39:09.618Z,3.90
2022-11-06T07:41:36.047Z,4.10
2022-11-06T07:44:02.547Z,4.18
2022-11-06T07:46:29.351Z,3.92
2022-11-06T07:48:55.862Z,4.15
2022-11-06T07:51:22.262Z,4.88
2022-11-06T07:53:48.724Z,5.10
2022-11-06T07:56:16.022Z,4.18
2022-11-06T07:58:42.403Z,3.67
2022-11-06T08:01:18.279Z,3.65
2022-11-06T08:03:45.516Z,3.63
2022-11-06T08:06:12.199Z,3.67
2022-11-06T08:08:38.989Z,3.78
2022-11-06T08:11:07.610Z,4.05
2022-11-06T08:13:35.083Z,4.35
2022-11-06T08:16:09.112Z,3.80
2022-11-06T08:18:36.102Z,3.67
2022-11-06T08:21:03.180Z,4.28
2022-11-06T08:23:29.704Z,4.00
2022-11-06T08:25:57.652Z,4.50
2022-11-06T08:28:27.688Z,4.13
2022-11-06T08:30:54.834Z,4.80
2022-11-06T08:33:23.021Z,4.32
2022-11-06T08:35:49.513Z,4.30
2022-11-06T08:38:16.768Z,4.75
2022-11-06T08:40:43.364Z,4.35
2022-11-06T08:43:11.101Z,4.15
2022-11-06T08:45:39.554Z,4.50
2022-11-06T08:48:06.899Z,4.00
2022-11-06T08:50:34.909Z,16.85
2022-11-06T08:53:04.159Z,8.45
2022-11-06T08:55:31.609Z,5.00
2022-11-06T08:57:58.098Z,4.80
2022-11-06T09:00:25.556Z,4.03
2022-11-06T09:02:59.084Z,3.67
2022-11-06T09:07:51.958Z,3.50
2022-11-06T09:10:18.388Z,3.67
2022-11-06T09:12:45.025Z,4.15
2022-11-06T09:15:11.441Z,4.50
2022-11-06T09:17:43.188Z,4.55
2022-11-06T09:20:11.344Z,4.57
2022-11-06T09:22:38.098Z,4.30
2022-11-06T09:25:05.152Z,4.57
2022-11-06T09:27:31.882Z,4.05
2022-11-06T09:29:58.431Z,4.45
2022-11-06T09:32:25.127Z,4.55
2022-11-06T09:34:51.764Z,4.05
2022-11-06T09:37:18.189Z,4.80
2022-11-06T09:39:44.724Z,4.60
2022-11-06T09:42:30.928Z,4.47
2022-11-06T09:45:10.993Z,4.47
2022-11-06T09:47:43.076Z,4.95
2022-11-06T09:50:17.579Z,4.20
2022-11-06T09:52:51.937Z,5.22
2022-11-06T09:55:26.974Z,5.32
2022-11-06T09:58:14.739Z,5.28
2022-11-06T10:00:41.932Z,5.47
2022-11-06T10:03:21.959Z,6.15
2022-11-06T10:05:48.438Z,4.60
2022-11-06T10:08:17.111Z,5.20
2022-11-06T10:11:02.324Z,7.25
2022-11-06T10:13:54.459Z,4.45
2022-11-06T10:16:39.454Z,4.30
2022-11-06T10:19:24.280Z,5.38
2022-11-06T10:22:20.354Z,5.07
2022-11-06T10:24:56.110Z,4.60
2022-11-06T10:27:39.361Z,4.82
2022-11-06T10:30:11.928Z,4.80
2022-11-06T10:32:59.912Z,4.70
2022-11-06T10:36:11.050Z,4.28
2022-11-06T10:38:47.185Z,4.70
2022-11-06T10:41:21.267Z,4.65
2022-11-06T10:43:53.264Z,4.55
2022-11-06T10:46:33.719Z,5.10
2022-11-06T10:49:04.504Z,4.85
2022-11-06T10:51:51.153Z,4.88
2022-11-06T10:54:41.461Z,4.68
2022-11-06T10:57:19.290Z,3.95
2022-11-06T10:59:45.815Z,4.20
2022-11-06T11:02:33.402Z,4.90
2022-11-06T11:05:00.107Z,4.10
2022-11-06T11:07:31.222Z,3.88
2022-11-06T11:09:57.765Z,3.45
2022-11-06T11:12:28.438Z,3.30
2022-11-06T11:15:19.358Z,3.55
2022-11-06T11:18:12.448Z,3.22
2022-11-06T11:20:47.607Z,3.20
2022-11-06T11:23:23.357Z,3.05
2022-11-06T11:25:57.658Z,3.28
2022-11-06T11:28:33.593Z,3.40
2022-11-06T11:31:20.536Z,3.47
2022-11-06T11:33:54.808Z,3.03
2022-11-06T11:36:21.413Z,3.53
2022-11-06T11:38:48.103Z,3.15
2022-11-06T11:41:24.003Z,3.25
2022-11-06T11:44:14.454Z,3.50
2022-11-06T11:46:52.291Z,3.35
2022-11-06T11:49:29.518Z,3.50
2022-11-06T11:51:58.392Z,3.42
2022-11-06T11:54:28.576Z,3.38
2022-11-06T11:57:04.835Z,3.17
2022-11-06T11:59:53.045Z,3.33
2022-11-06T12:02:26.845Z,3.17
2022-11-06T12:05:09.405Z,3.08
2022-11-06T12:07:43.445Z,3.25
2022-11-06T12:10:34.030Z,3.58
2022-11-06T12:13:04.946Z,2.90
2022-11-06T12:15:44.070Z,3.40
2022-11-06T12:18:15.751Z,3.63
2022-11-06T12:20:52.812Z,3.85
2022-11-06T12:23:37.743Z,3.40
2022-11-06T12:26:23.066Z,2.78
2022-11-06T12:28:59.369Z,3.00
2022-11-06T12:31:38.997Z,2.60
2022-11-06T12:34:17.056Z,2.90
2022-11-06T12:36:58.900Z,3.03
2022-11-06T12:39:33.276Z,3.03
2022-11-06T12:42:04.148Z,3.22
2022-11-06T12:44:30.652Z,2.90
2022-11-06T12:47:08.081Z,2.30
2022-11-06T12:50:13.655Z,3.05
2022-11-06T12:53:05.017Z,3.08
2022-11-06T12:55:47.621Z,3.20
2022-11-06T12:58:24.331Z,2.47
2022-11-06T13:01:27.732Z,2.95
2022-11-06T13:04:21.638Z,2.60
2022-11-06T13:07:06.583Z,2.72
2022-11-06T13:09:45.070Z,2.55
2022-11-06T13:12:18.650Z,2.35
2022-11-06T13:14:56.013Z,2.45
2022-11-06T13:17:26.742Z,2.72
2022-11-06T13:19:58.061Z,2.63
2022-11-06T13:22:30.926Z,2.22
2022-11-06T13:25:04.216Z,2.50
2022-11-06T13:30:15.920Z,2.38
2022-11-06T13:32:51.035Z,2.85
2022-11-06T13:35:21.957Z,2.22
2022-11-06T13:37:51.133Z,2.58
2022-11-06T13:40:42.948Z,2.90
2022-11-06T13:43:24.012Z,2.75
2022-11-06T13:46:07.642Z,2.75
2022-11-06T13:48:56.671Z,3.15
2022-11-06T13:51:47.049Z,2.85
2022-11-06T13:54:33.700Z,3.83
2022-11-06T13:57:29.231Z,2.90
2022-11-06T14:00:03.952Z,6.28
2022-11-06T14:02:52.069Z,2.90
2022-11-06T14:05:48.122Z,3.35
2022-11-06T14:08:26.413Z,2.60
2022-11-06T14:11:00.641Z,3.20
2022-11-06T14:13:31.247Z,5.45
2022-11-06T14:16:20.961Z,3.72
2022-11-06T14:18:54.812Z,2.80
2022-11-06T14:21:36.253Z,2.75
2022-11-06T14:24:41.533Z,3.72
2022-11-06T14:27:23.176Z,3.33
2022-11-06T14:29:57.165Z,3.35
2022-11-06T14:32:23.658Z,3.03
2022-11-06T14:34:50.698Z,3.30
2022-11-06T14:37:19.919Z,3.50
2022-11-06T14:39:52.804Z,3.50
2022-11-06T14:42:30.134Z,3.28
2022-11-06T14:45:30.575Z,3.15
2022-11-06T14:47:57.032Z,2.80
2022-11-06T14:50:24.132Z,3.97
2022-11-06T14:52:57.911Z,3.53
2022-11-06T14:55:31.545Z,3.60
2022-11-06T15:00:49.614Z,3.70
2022-11-06T15:03:23.495Z,13.68
2022-11-06T15:05:52.791Z,5.78
2022-11-06T15:08:48.029Z,6.90
2022-11-06T15:11:29.956Z,3.63
2022-11-06T15:14:01.159Z,3.45
2022-11-06T15:16:37.977Z,5.60
2022-11-06T15:19:07.531Z,4.05
2022-11-06T15:21:54.474Z,5.40
2022-11-06T15:24:28.849Z,4.75
2022-11-06T15:27:00.239Z,3.95
2022-11-06T15:29:29.127Z,5.05
2022-11-06T15:32:02.594Z,3.63
2022-11-06T15:34:37.495Z,4.50
2022-11-06T15:37:17.752Z,6.07
2022-11-06T15:40:01.234Z,5.90
2022-11-06T15:45:09.587Z,4.10
2022-11-06T15:47:35.985Z,4.15
2022-11-06T15:50:23.992Z,4.47
2022-11-06T15:52:50.858Z,5.03
2022-11-06T15:55:29.600Z,4.60
2022-11-06T15:58:09.727Z,4.63
2022-11-06T16:00:37.010Z,5.18
2022-11-06T16:03:06.780Z,4.50
2022-11-06T16:05:36.088Z,4.68
2022-11-06T16:08:05.398Z,4.82
2022-11-06T16:10:34.680Z,5.40
2022-11-06T16:13:03.412Z,4.43
2022-11-06T16:15:41.945Z,4.18
2022-11-06T16:18:29.838Z,4.05
2022-11-06T16:21:28.534Z,5.00
2022-11-06T16:24:14.694Z,6.00
2022-11-06T16:26:50.240Z,4.22
2022-11-06T16:29:20.962Z,6.03
2022-11-06T16:31:48.385Z,5.15
2022-11-06T16:34:46.057Z,4.53
2022-11-06T16:37:35.984Z,4.90
2022-11-06T16:40:02.587Z,5.10
2022-11-06T16:42:35.887Z,5.20
2022-11-06T16:45:08.284Z,5.55
2022-11-06T16:47:34.901Z,5.55
2022-11-06T16:50:02.632Z,5.63
2022-11-06T16:52:40.826Z,6.45
2022-11-06T16:55:08.129Z,6.45
2022-11-06T16:57:53.671Z,7.78
2022-11-06T17:00:20.009Z,7.25
2022-11-06T17:02:50.142Z,7.80
2022-11-06T17:05:19.846Z,8.90
2022-11-06T17:07:46.387Z,8.02
2022-11-06T17:10:34.609Z,8.40
2022-11-06T17:13:19.889Z,8.25
2022-11-06T17:15:55.935Z,8.30
2022-11-06T17:18:25.671Z,8.77
2022-11-06T17:20:55.230Z,8.98
2022-11-06T17:23:22.433Z,10.18
2022-11-06T17:25:51.535Z,8.35
2022-11-06T17:28:18.905Z,9.60
2022-11-06T17:30:47.026Z,8.80
2022-11-06T17:33:14.222Z,8.77
2022-11-06T17:35:41.300Z,8.02
2022-11-06T17:38:07.978Z,8.32
2022-11-06T17:40:34.514Z,8.57
2022-11-06T17:43:00.996Z,8.70
2022-11-06T17:45:27.405Z,9.13
2022-11-06T17:47:53.861Z,7.68
2022-11-06T17:50:20.678Z,8.98
2022-11-06T17:52:47.200Z,8.35
2022-11-06T17:55:13.853Z,8.68
2022-11-06T17:57:40.345Z,9.02
2022-11-06T18:00:07.499Z,7.63
2022-11-06T18:02:59.127Z,7.82
2022-11-06T18:05:20.376Z,8.07
2022-11-06T18:07:46.741Z,8.20
2022-11-06T18:10:13.184Z,8.77
2022-11-06T18:12:39.603Z,9.23
2022-11-06T18:15:06.759Z,8.75
2022-11-06T18:17:33.189Z,12.60
2022-11-06T18:19:59.708Z,8.13
2022-11-06T18:22:26.078Z,9.43
2022-11-06T18:24:52.784Z,9.93
2022-11-06T18:27:19.266Z,8.43
2022-11-06T18:29:45.718Z,8.13
2022-11-06T18:32:12.140Z,10.90
2022-11-06T18:34:38.652Z,8.38
2022-11-06T18:37:05.134Z,7.97
2022-11-06T18:39:31.795Z,9.27
2022-11-06T18:41:59.296Z,9.07
2022-11-06T18:44:26.041Z,8.30
2022-11-06T18:46:52.741Z,8.27
2022-11-06T18:49:19.166Z,9.02
2022-11-06T18:51:45.804Z,7.70
2022-11-06T18:54:13.038Z,9.15
2022-11-06T18:56:39.583Z,9.80
2022-11-06T18:59:07.999Z,8.45
2022-11-06T19:01:35.358Z,10.77
2022-11-06T19:04:03.839Z,9.18
2022-11-06T19:06:31.171Z,9.13
2022-11-06T19:08:57.924Z,8.82
2022-11-06T19:11:24.408Z,8.48
2022-11-06T19:13:50.814Z,9.30
2022-11-06T19:16:19.529Z,8.88
2022-11-06T19:18:46.830Z,10.63
2022-11-06T19:21:13.596Z,8.68
2022-11-06T19:23:42.166Z,7.82
2022-11-06T19:28:59.749Z,8.73
2022-11-06T19:31:28.639Z,8.45
2022-11-06T19:33:59.370Z,8.55
2022-11-06T19:36:26.553Z,9.45
2022-11-06T19:38:53.681Z,8.57
2022-11-06T19:41:20.760Z,7.90
2022-11-06T19:43:47.359Z,8.00
2022-11-06T19:46:17.101Z,9.07
2022-11-06T19:48:46.285Z,7.88
2022-11-06T19:51:15.547Z,8.52
2022-11-06T19:53:43.747Z,8.80
2022-11-06T19:56:18.808Z,8.15
2022-11-06T19:58:45.251Z,8.57
2022-11-06T20:01:15.609Z,8.30
2022-11-06T20:03:42.843Z,9.52
2022-11-06T20:06:09.874Z,10.00
2022-11-06T20:08:38.531Z,9.27
2022-11-06T20:11:07.183Z,8.50
2022-11-06T20:13:36.435Z,10.48
2022-11-06T20:16:04.214Z,10.60
2022-11-06T20:18:31.104Z,9.80
2022-11-06T20:21:01.506Z,9.80
2022-11-06T20:23:28.793Z,9.98
2022-11-06T20:25:55.642Z,9.35
2022-11-06T20:28:22.446Z,10.75
2022-11-06T20:30:49.215Z,9.85
2022-11-06T20:33:16.672Z,8.80
2022-11-06T20:35:43.494Z,9.43
2022-11-06T20:38:10.272Z,10.00
2022-11-06T20:40:36.781Z,9.88
2022-11-06T20:43:03.257Z,9.82
2022-11-06T20:45:29.870Z,9.05
2022-11-06T20:47:56.449Z,9.00
2022-11-06T20:50:22.856Z,9.05
2022-11-06T20:52:49.251Z,10.05
2022-11-06T20:55:15.704Z,9.68
2022-11-06T20:57:42.349Z,8.85
2022-11-06T21:00:09.534Z,9.45
2022-11-06T21:02:36.077Z,8.80
2022-11-06T21:05:02.770Z,9.43
2022-11-06T21:07:29.623Z,10.63
2022-11-06T21:09:56.044Z,9.90
2022-11-06T21:12:23.094Z,9.73
2022-11-06T21:14:49.478Z,9.35
2022-11-06T21:17:15.879Z,10.00
2022-11-06T21:19:42.278Z,10.38
2022-11-06T21:22:08.793Z,10.43
2022-11-06T21:24:35.274Z,10.57
2022-11-06T21:27:01.656Z,10.93
2022-11-06T21:29:28.055Z,10.90
2022-11-06T21:31:54.953Z,10.57
2022-11-06T21:34:21.334Z,10.35
2022-11-06T21:36:47.889Z,10.55
2022-11-06T21:39:18.125Z,9.80
2022-11-06T21:41:45.459Z,10.50
2022-11-06T21:44:15.090Z,10.75
2022-11-06T21:46:45.101Z,10.43
2022-11-06T21:49:12.352Z,10.65
2022-11-06T21:51:38.969Z,10.35
2022-11-06T21:54:23.877Z,9.75
2022-11-06T21:56:51.498Z,9.68
2022-11-06T21:59:19.917Z,9.85
2022-11-06T22:01:46.840Z,9.68
2022-11-06T22:04:13.869Z,9.90
2022-11-06T22:06:42.442Z,10.23
2022-11-06T22:09:10.515Z,9.65
2022-11-06T22:11:39.625Z,9.95
2022-11-06T22:14:16.008Z,10.07
2022-11-06T22:16:45.031Z,10.15
2022-11-06T22:19:12.216Z,9.80
2022-11-06T22:21:40.800Z,10.27
2022-11-06T22:24:08.545Z,10.20
2022-11-06T22:26:36.254Z,10.60
2022-11-06T22:29:07.070Z,10.00
2022-11-06T22:31:34.022Z,10.43
2022-11-06T22:34:00.526Z,10.35
2022-11-06T22:36:27.044Z,9.88
2022-11-06T22:38:53.672Z,10.77
2022-11-06T22:41:23.537Z,11.02
2022-11-06T22:43:50.583Z,9.10
2022-11-06T22:46:22.706Z,9.23
2022-11-06T22:48:51.270Z,9.30
2022-11-06T22:51:20.526Z,10.07
2022-11-06T22:53:47.158Z,9.18
2022-11-06T22:56:14.078Z,8.45
2022-11-06T22:58:42.434Z,8.48
2022-11-06T23:01:10.443Z,8.85
2022-11-06T23:03:37.821Z,9.05
2022-11-06T23:06:07.137Z,7.70
2022-11-06T23:08:34.708Z,8.93
2022-11-06T23:11:09.893Z,8.05
2022-11-06T23:13:36.756Z,7.63
2022-11-06T23:16:09.410Z,7.97
2022-11-06T23:18:36.052Z,6.65
2022-11-06T23:21:02.753Z,7.18
2022-11-06T23:23:29.189Z,7.25
2022-11-06T23:25:55.612Z,7.30
2022-11-06T23:28:22.044Z,6.45
2022-11-06T23:30:48.552Z,6.95
2022-11-06T23:33:15.301Z,6.38
2022-11-06T23:35:41.891Z,6.55
2022-11-06T23:38:08.372Z,5.57
2022-11-06T23:40:34.862Z,5.30
2022-11-06T23:43:01.305Z,5.65
2022-11-06T23:45:46.535Z,5.32
2022-11-06T23:48:15.781Z,5.65
2022-11-06T23:50:47.068Z,5.95
2022-11-06T23:53:17.321Z,5.68
2022-11-06T23:55:44.172Z,5.97
2022-11-06T23:58:10.915Z,5.82
